Time;durP1;ratioP1;P1;durP2;ratioP2;P2;SDS_P1;SDS_P2;PMS_P1;PMS_P2;Temp;Humidity;BMP_temperature;BMP_pressure;BME280_temperature;BME280_humidity;BME280_pressure;Samples;Min_cycle;Max_cycle;Signal;HPM_P1;HPM_P2
2022/09/14 00:01:34;;;;;;;;;;;;;;;17.06;100.00;100807.66;5026868;28;19917;-43
2022/09/14 00:04:01;;;;;;;;;;;;;;;17.06;100.00;100813.03;5032999;28;19912;-45
2022/09/14 00:06:27;;;;;;;;;;;;;;;17.04;100.00;100803.47;5032221;28;20489;-43
2022/09/14 00:08:53;;;;;;;;;;;;;;;17.01;100.00;100809.31;5026058;28;19971;-43
2022/09/14 00:11:20;;;;;;;;;;;;;;;16.97;100.00;100798.06;5028703;28;20078;-43
2022/09/14 00:13:46;;;;;;;;;;;;;;;16.95;100.00;100800.16;5030257;28;19916;-42
2022/09/14 00:16:13;;;;;;;;;;;;;;;16.93;100.00;100799.53;5022165;28;19916;-43
2022/09/14 00:18:40;;;;;;;;;;;;;;;16.91;100.00;100802.44;5063693;28;19923;-42
2022/09/14 00:21:07;;;;;;;;;;;;;;;16.87;100.00;100803.88;5033666;28;19996;-44
2022/09/14 00:23:36;;;;;;;;;;;;;;;16.81;100.00;100793.88;5034514;28;20338;-44
2022/09/14 00:26:05;;;;;;;;;;;;;;;16.80;100.00;100792.19;5030039;28;19916;-42
2022/09/14 00:28:35;;;;;;;;;;;;;;;16.77;100.00;100788.03;5037363;28;19913;-43
2022/09/14 00:31:02;;;;;;;;;;;;;;;16.78;100.00;100783.47;5033225;28;20471;-44
2022/09/14 00:33:27;;;;;;;;;;;;;;;16.77;100.00;100789.91;5036522;28;20093;-44
2022/09/14 00:35:52;;;;;;;;;;;;;;;16.72;100.00;100779.72;5035764;28;20342;-47
2022/09/14 00:38:17;;;;;;;;;;;;;;;16.68;100.00;100780.34;5027314;28;20007;-44
2022/09/14 00:40:42;;;;;;;;;;;;;;;16.66;100.00;100775.16;5034207;28;20202;-44
2022/09/14 00:43:13;;;;;;;;;;;;;;;16.67;100.00;100776.00;5036849;28;19916;-43
2022/09/14 00:45:38;;;;;;;;;;;;;;;16.65;100.00;100773.50;5032244;28;19955;-44
2022/09/14 00:48:03;;;;;;;;;;;;;;;16.64;100.00;100768.31;5035622;28;20561;-44
2022/09/14 00:50:30;;;;;;;;;;;;;;;16.65;100.00;100767.25;5028445;28;19921;-44
2022/09/14 00:52:55;;;;;;;;;;;;;;;16.65;100.00;100757.31;5036078;28;19924;-43
2022/09/14 00:55:22;;;;;;;;;;;;;;;16.65;100.00;100749.22;5034516;28;19923;-41
2022/09/14 00:57:50;;;;;;;;;;;;;;;16.64;100.00;100752.13;5036543;28;20234;-42
2022/09/14 01:00:21;;;;;;;;;;;;;;;16.64;100.00;100744.88;5034192;28;19912;-43
2022/09/14 01:02:46;;;;;;;;;;;;;;;16.64;100.00;100742.16;5026536;28;20024;-43
2022/09/14 01:05:13;;;;;;;;;;;;;;;16.65;100.00;100751.94;5034645;28;20478;-43
2022/09/14 01:07:54;;;;;;;;;;;;;;;16.65;100.00;100743.84;5050377;28;20331;-45
2022/09/14 01:10:28;;;;;;;;;;;;;;;16.65;100.00;100738.44;5032076;28;19999;-42
2022/09/14 01:13:06;;;;;;;;;;;;;;;16.66;100.00;100732.00;5024769;28;19960;-44
2022/09/14 01:15:31;;;;;;;;;;;;;;;16.59;100.00;100725.78;5032314;28;20169;-45
2022/09/14 01:18:00;;;;;;;;;;;;;;;16.54;100.00;100725.53;5025476;28;20340;-43
2022/09/14 01:20:25;;;;;;;;;;;;;;;16.48;100.00;100718.25;5031631;28;19913;-46
2022/09/14 01:23:02;;;;;;;;;;;;;;;16.50;100.00;100718.91;5034434;28;20265;-43
2022/09/14 01:25:30;;;;;;;;;;;;;;;16.49;100.00;100719.94;5035532;28;19917;-44
2022/09/14 01:27:57;;;;;;;;;;;;;;;16.46;100.00;100714.94;5027273;28;19913;-44
2022/09/14 01:30:23;;;;;;;;;;;;;;;16.44;100.00;100711.63;5027700;28;20411;-43
2022/09/14 01:33:03;;;;;;;;;;;;;;;16.40;100.00;100712.03;5032563;28;19913;-44
2022/09/14 01:35:31;;;;;;;;;;;;;;;16.34;100.00;100714.69;5030128;28;20033;-46
2022/09/14 01:38:14;;;;;;;;;;;;;;;16.27;100.00;100705.78;5027061;28;19913;-44
2022/09/14 01:40:43;;;;;;;;;;;;;;;16.19;100.00;100713.00;5021286;28;19917;-45
2022/09/14 01:43:17;;;;;;;;;;;;;;;16.20;100.00;100713.81;5035747;28;20015;-44
2022/09/14 01:45:47;;;;;;;;;;;;;;;16.22;100.00;100719.84;5027113;28;19913;-43
2022/09/14 01:48:14;;;;;;;;;;;;;;;16.23;100.00;100718.81;5034968;28;20368;-44
2022/09/14 01:50:42;;;;;;;;;;;;;;;16.20;100.00;100717.34;5029872;28;19921;-43
2022/09/14 01:53:21;;;;;;;;;;;;;;;16.18;100.00;100715.91;5035871;28;20320;-45
2022/09/14 01:55:52;;;;;;;;;;;;;;;16.11;100.00;100713.19;5035582;28;20018;-44
2022/09/14 01:58:25;;;;;;;;;;;;;;;16.10;100.00;100705.28;5036327;28;20012;-47
2022/09/14 02:00:52;;;;;;;;;;;;;;;16.06;100.00;100704.88;5034281;28;20151;-43
2022/09/14 02:03:20;;;;;;;;;;;;;;;16.07;100.00;100705.69;5029784;28;20391;-42
2022/09/14 02:05:59;;;;;;;;;;;;;;;16.03;100.00;100698.00;5025563;28;20007;-45
2022/09/14 02:08:26;;;;;;;;;;;;;;;16.00;100.00;100694.88;5035146;28;19954;-41
2022/09/14 02:10:52;;;;;;;;;;;;;;;15.96;100.00;100694.47;5030942;28;20332;-46
2022/09/14 02:13:17;;;;;;;;;;;;;;;15.96;100.00;100696.31;5021169;28;20008;-41
2022/09/14 02:15:42;;;;;;;;;;;;;;;15.95;100.00;100691.97;5023649;28;19966;-42
2022/09/14 02:18:07;;;;;;;;;;;;;;;15.96;100.00;100705.22;5023137;28;20316;-43
2022/09/14 02:20:36;;;;;;;;;;;;;;;15.98;100.00;100713.13;5028500;28;20044;-42
2022/09/14 02:23:01;;;;;;;;;;;;;;;15.99;100.00;100712.09;5034916;28;19913;-42
2022/09/14 02:25:27;;;;;;;;;;;;;;;16.01;100.00;100702.75;5032889;28;20003;-42
2022/09/14 02:27:52;;;;;;;;;;;;;;;16.00;100.00;100702.97;5034520;28;20019;-42
2022/09/14 02:30:19;;;;;;;;;;;;;;;15.96;100.00;100707.09;5029954;28;19921;-45
2022/09/14 02:32:58;;;;;;;;;;;;;;;15.92;100.00;100712.06;5031619;28;19912;-42
2022/09/14 02:35:35;;;;;;;;;;;;;;;15.92;100.00;100713.91;5026715;28;20031;-44
2022/09/14 02:38:08;;;;;;;;;;;;;;;15.89;100.00;100720.53;5022367;28;20541;-42
2022/09/14 02:40:38;;;;;;;;;;;;;;;15.88;100.00;100709.97;5028583;28;19951;-43
2022/09/14 02:43:06;;;;;;;;;;;;;;;15.84;100.00;100704.13;5034509;28;19912;-41
2022/09/14 02:45:37;;;;;;;;;;;;;;;15.80;100.00;100698.31;5030469;28;19920;-43
2022/09/14 02:48:02;;;;;;;;;;;;;;;15.76;100.00;100694.34;5033805;28;19913;-42
2022/09/14 02:50:47;;;;;;;;;;;;;;;15.78;100.00;100697.69;5029261;28;20089;-45
2022/09/14 02:53:13;;;;;;;;;;;;;;;15.80;100.00;100695.63;5025332;28;20391;-44
2022/09/14 02:55:41;;;;;;;;;;;;;;;15.83;100.00;100697.09;5029578;28;19928;-43
2022/09/14 02:58:08;;;;;;;;;;;;;;;15.80;100.00;100695.63;5033389;28;20303;-43
2022/09/14 03:00:35;;;;;;;;;;;;;;;15.80;100.00;100689.41;5029424;28;20465;-46
2022/09/14 03:03:01;;;;;;;;;;;;;;;15.78;100.00;100688.78;5024171;28;20261;-41
2022/09/14 03:05:26;;;;;;;;;;;;;;;15.75;100.00;100687.31;5026604;28;20305;-42
2022/09/14 03:07:51;;;;;;;;;;;;;;;15.75;100.00;100684.63;5032155;28;20184;-42
2022/09/14 03:10:16;;;;;;;;;;;;;;;15.71;100.00;100685.19;5025920;28;20022;-43
2022/09/14 03:12:42;;;;;;;;;;;;;;;15.66;100.00;100681.25;5028546;28;19913;-44
2022/09/14 03:15:07;;;;;;;;;;;;;;;15.61;100.00;100678.31;5018945;28;19932;-42
2022/09/14 03:17:32;;;;;;;;;;;;;;;15.55;100.00;100680.97;5030850;28;20012;-42
2022/09/14 03:19:57;;;;;;;;;;;;;;;15.55;100.00;100680.97;5029002;28;20183;-42
2022/09/14 03:22:23;;;;;;;;;;;;;;;15.53;100.00;100683.00;5032224;28;19948;-47
2022/09/14 03:24:48;;;;;;;;;;;;;;;15.52;100.00;100668.72;5034998;28;19928;-46
2022/09/14 03:27:13;;;;;;;;;;;;;;;15.48;100.00;100664.78;5033676;28;19959;-44
2022/09/14 03:29:38;;;;;;;;;;;;;;;15.40;100.00;100662.25;5032394;28;20399;-47
2022/09/14 03:32:04;;;;;;;;;;;;;;;15.33;100.00;100658.69;5032073;28;19916;-44
2022/09/14 03:34:29;;;;;;;;;;;;;;;15.29;100.00;100656.38;5032884;28;20318;-43
2022/09/14 03:36:54;;;;;;;;;;;;;;;15.25;100.00;100662.34;5021684;28;19955;-42
2022/09/14 03:39:19;;;;;;;;;;;;;;;15.23;100.00;100650.94;5033313;28;19919;-44
2022/09/14 03:41:44;;;;;;;;;;;;;;;15.19;100.00;100661.28;5026917;28;19920;-43
2022/09/14 03:44:10;;;;;;;;;;;;;;;15.14;100.00;100655.66;5030474;28;19913;-44
2022/09/14 03:46:35;;;;;;;;;;;;;;;15.08;100.00;100653.72;5035125;28;19913;-43
2022/09/14 03:49:00;;;;;;;;;;;;;;;15.02;100.00;100636.53;5036399;28;19953;-43
2022/09/14 03:51:25;;;;;;;;;;;;;;;15.03;100.00;100640.03;5031082;28;20264;-44
2022/09/14 03:53:50;;;;;;;;;;;;;;;15.00;100.00;100638.56;5034898;28;19909;-44
2022/09/14 03:56:18;;;;;;;;;;;;;;;15.02;100.00;100641.06;5037203;28;20395;-42
2022/09/14 03:58:44;;;;;;;;;;;;;;;14.98;100.00;100637.94;5030956;28;19917;-44
2022/09/14 04:01:10;;;;;;;;;;;;;;;14.95;100.00;100634.81;5035717;28;19916;-43
2022/09/14 04:03:36;;;;;;;;;;;;;;;14.89;100.00;100631.03;5036847;28;19944;-47
2022/09/14 04:06:04;;;;;;;;;;;;;;;14.89;100.00;100634.56;5033937;28;19959;-43
2022/09/14 04:08:29;;;;;;;;;;;;;;;14.88;100.00;100630.22;5035652;28;19908;-45
2022/09/14 04:10:54;;;;;;;;;;;;;;;14.91;100.00;100628.97;5030654;28;19916;-45
2022/09/14 04:13:22;;;;;;;;;;;;;;;14.87;100.00;100608.91;5034810;28;19934;-43
2022/09/14 04:15:58;;;;;;;;;;;;;;;14.96;100.00;100628.41;5033939;28;20101;-43
2022/09/14 04:18:24;;;;;;;;;;;;;;;14.95;100.00;100622.19;5025415;28;19915;-44
2022/09/14 04:20:53;;;;;;;;;;;;;;;15.01;100.00;100620.59;5030305;28;19924;-42
2022/09/14 04:23:18;;;;;;;;;;;;;;;15.03;100.00;100623.91;5035911;28;20358;-42
2022/09/14 04:25:43;;;;;;;;;;;;;;;15.05;100.00;100624.53;5036027;28;19996;-42
2022/09/14 04:28:08;;;;;;;;;;;;;;;15.08;100.00;100616.06;5037754;28;19916;-42
2022/09/14 04:30:34;;;;;;;;;;;;;;;15.10;100.00;100622.94;5032392;28;19937;-43
2022/09/14 04:32:59;;;;;;;;;;;;;;;15.11;100.00;100618.38;5025220;28;19913;-42
2022/09/14 04:35:24;;;;;;;;;;;;;;;15.11;100.00;100615.69;5033568;28;20049;-45
2022/09/14 04:37:49;;;;;;;;;;;;;;;15.14;100.00;100606.38;5036498;28;19928;-43
2022/09/14 04:40:14;;;;;;;;;;;;;;;15.15;100.00;100605.38;5036497;28;20047;-42
2022/09/14 04:42:40;;;;;;;;;;;;;;;15.16;100.00;100607.03;5036248;28;19909;-45
2022/09/14 04:45:05;;;;;;;;;;;;;;;15.10;100.00;100604.09;5035070;28;19924;-45
2022/09/14 04:47:30;;;;;;;;;;;;;;;15.06;100.00;100602.00;5028600;28;19971;-44
2022/09/14 04:49:56;;;;;;;;;;;;;;;15.05;100.00;100593.13;5027854;28;20125;-46
2022/09/14 04:52:22;;;;;;;;;;;;;;;15.04;100.00;100591.44;5031253;28;19966;-46
2022/09/14 04:54:47;;;;;;;;;;;;;;;15.00;100.00;100589.31;5035978;28;19985;-45
2022/09/14 04:57:12;;;;;;;;;;;;;;;14.99;100.00;100590.38;5031481;28;20280;-46
2022/09/14 04:59:37;;;;;;;;;;;;;;;14.95;100.00;100575.63;5028411;28;20108;-47
2022/09/14 05:02:03;;;;;;;;;;;;;;;14.95;100.00;100579.16;5022713;28;19919;-42
2022/09/14 05:04:28;;;;;;;;;;;;;;;14.96;100.00;100572.75;5018612;28;19913;-45
2022/09/14 05:06:54;;;;;;;;;;;;;;;14.97;100.00;100574.44;5024627;28;19916;-46
2022/09/14 05:09:20;;;;;;;;;;;;;;;14.98;100.00;100580.63;5034146;28;19997;-42
2022/09/14 05:11:46;;;;;;;;;;;;;;;14.98;100.00;100586.00;5036007;28;19923;-48
2022/09/14 05:14:12;;;;;;;;;;;;;;;15.00;100.00;100586.63;5025008;28;20332;-47
2022/09/14 05:16:38;;;;;;;;;;;;;;;15.01;100.00;100582.94;5028985;28;19960;-45
2022/09/14 05:19:04;;;;;;;;;;;;;;;15.01;100.00;100581.06;5053625;28;20406;-44
2022/09/14 05:21:30;;;;;;;;;;;;;;;15.00;100.00;100582.09;5028477;28;19923;-44
2022/09/14 05:23:57;;;;;;;;;;;;;;;15.03;100.00;100594.31;5045541;28;20236;-45
2022/09/14 05:26:23;;;;;;;;;;;;;;;15.02;100.00;100596.19;5027864;28;19928;-42
2022/09/14 05:28:50;;;;;;;;;;;;;;;15.02;100.00;100598.03;5014682;28;20256;-42
2022/09/14 05:31:15;;;;;;;;;;;;;;;15.01;100.00;100599.06;5015591;28;20189;-43
2022/09/14 05:33:41;;;;;;;;;;;;;;;15.01;100.00;100604.44;5017877;28;19909;-43
2022/09/14 05:36:07;;;;;;;;;;;;;;;15.03;100.00;100605.91;5021259;28;20406;-43
2022/09/14 05:38:33;;;;;;;;;;;;;;;15.05;100.00;100603.00;5013801;28;20875;-43
2022/09/14 05:40:58;;;;;;;;;;;;;;;15.06;100.00;100602.81;5017821;28;19960;-43
2022/09/14 05:43:24;;;;;;;;;;;;;;;15.11;100.00;100603.06;5020867;28;19956;-47
2022/09/14 05:45:49;;;;;;;;;;;;;;;15.10;100.00;100605.94;5022339;28;20339;-41
2022/09/14 05:48:14;;;;;;;;;;;;;;;15.07;100.00;100611.72;5020972;28;20027;-42
2022/09/14 05:50:40;;;;;;;;;;;;;;;15.05;100.00;100605.72;5017678;28;19920;-47
2022/09/14 05:53:05;;;;;;;;;;;;;;;15.06;100.00;100608.19;5021927;28;19922;-46
2022/09/14 05:55:30;;;;;;;;;;;;;;;15.09;100.00;100607.00;5018525;28;20487;-43
2022/09/14 05:57:55;;;;;;;;;;;;;;;15.09;100.00;100609.69;5023327;28;19924;-46
2022/09/14 06:00:21;;;;;;;;;;;;;;;15.11;100.00;100608.44;5014547;28;19913;-48
2022/09/14 06:02:47;;;;;;;;;;;;;;;15.13;100.00;100605.56;5014607;28;19920;-44
2022/09/14 06:05:12;;;;;;;;;;;;;;;15.16;100.00;100607.84;5013206;28;20386;-42
2022/09/14 06:07:38;;;;;;;;;;;;;;;15.14;100.00;100609.91;5023750;28;19908;-43
2022/09/14 06:10:03;;;;;;;;;;;;;;;15.14;100.00;100609.06;5014056;28;19917;-46
2022/09/14 06:12:28;;;;;;;;;;;;;;;15.19;100.00;100614.69;5030278;28;19916;-44
2022/09/14 06:14:53;;;;;;;;;;;;;;;15.19;100.00;100614.69;5031205;28;19909;-46
2022/09/14 06:17:18;;;;;;;;;;;;;;;15.22;100.00;100620.53;5027599;28;19947;-43
2022/09/14 06:19:44;;;;;;;;;;;;;;;15.18;100.00;100630.00;5032461;28;19958;-43
2022/09/14 06:22:09;;;;;;;;;;;;;;;15.21;100.00;100634.19;5034271;28;19913;-44
2022/09/14 06:24:34;;;;;;;;;;;;;;;15.23;100.00;100624.88;5030732;28;19924;-46
2022/09/14 06:26:59;;;;;;;;;;;;;;;15.24;100.00;100620.31;5031822;28;19921;-42
2022/09/14 06:29:24;;;;;;;;;;;;;;;15.25;100.00;100613.91;5031887;28;20283;-42
2022/09/14 06:31:50;;;;;;;;;;;;;;;15.29;100.00;100613.31;5032810;28;19925;-45
2022/09/14 06:34:15;;;;;;;;;;;;;;;15.32;100.00;100611.25;5024180;28;19909;-45
2022/09/14 06:36:40;;;;;;;;;;;;;;;15.32;100.00;100606.69;5033914;28;19952;-45
2022/09/14 06:39:05;;;;;;;;;;;;;;;15.37;100.00;100611.50;5026597;28;19913;-43
2022/09/14 06:41:31;;;;;;;;;;;;;;;15.37;100.00;100612.31;5019626;28;19921;-45
2022/09/14 06:43:57;;;;;;;;;;;;;;;15.38;100.00;100597.03;5014462;28;19909;-47
2022/09/14 06:46:24;;;;;;;;;;;;;;;15.37;100.00;100598.88;5013538;28;19909;-42
2022/09/14 06:48:51;;;;;;;;;;;;;;;15.38;100.00;100599.72;5014297;28;19909;-43
2022/09/14 06:51:24;;;;;;;;;;;;;;;15.40;100.00;100594.97;5017355;28;20473;-45
2022/09/14 06:53:50;;;;;;;;;;;;;;;15.38;100.00;100595.16;5030862;28;19935;-43
2022/09/14 06:56:15;;;;;;;;;;;;;;;15.41;100.00;100585.84;5021372;28;19909;-44
2022/09/14 06:58:41;;;;;;;;;;;;;;;15.47;100.00;100593.13;5015152;28;19912;-44
2022/09/14 07:01:08;;;;;;;;;;;;;;;15.48;100.00;100597.50;5013712;28;19967;-44
2022/09/14 07:03:34;;;;;;;;;;;;;;;15.48;100.00;100595.63;5013189;28;19909;-45
2022/09/14 07:06:00;;;;;;;;;;;;;;;15.49;100.00;100580.28;5019738;28;19938;-46
2022/09/14 07:08:27;;;;;;;;;;;;;;;15.47;100.00;100583.19;5032373;28;20351;-45
2022/09/14 07:10:56;;;;;;;;;;;;;;;15.45;100.00;100587.13;5015528;28;19967;-44
2022/09/14 07:13:22;;;;;;;;;;;;;;;15.38;100.00;100581.69;5022123;28;19982;-43
2022/09/14 07:15:48;;;;;;;;;;;;;;;15.34;100.00;100585.81;5025061;28;19905;-42
2022/09/14 07:18:14;;;;;;;;;;;;;;;15.31;100.00;100594.28;5012423;28;19916;-44
2022/09/14 07:20:39;;;;;;;;;;;;;;;15.25;100.00;100589.69;5016195;28;19913;-45
2022/09/14 07:23:05;;;;;;;;;;;;;;;15.23;100.00;100581.81;5017880;28;19901;-43
2022/09/14 07:25:30;;;;;;;;;;;;;;;15.23;100.00;100584.50;5017440;28;20194;-45
2022/09/14 07:27:55;;;;;;;;;;;;;;;15.26;100.00;100583.31;5024685;28;19999;-42
2022/09/14 07:30:23;;;;;;;;;;;;;;;15.24;100.00;100588.88;5017606;28;20050;-43
2022/09/14 07:32:48;;;;;;;;;;;;;;;15.24;100.00;100588.88;5017091;28;19909;-43
2022/09/14 07:35:13;;;;;;;;;;;;;;;15.26;100.00;100581.44;5015035;28;19931;-42
2022/09/14 07:37:39;;;;;;;;;;;;;;;15.27;100.00;100580.41;5018570;28;20280;-44
2022/09/14 07:40:04;;;;;;;;;;;;;;;15.26;100.00;100577.91;5016803;28;19913;-45
2022/09/14 07:42:30;;;;;;;;;;;;;;;15.25;100.00;100587.00;5017356;28;19975;-44
2022/09/14 07:44:55;;;;;;;;;;;;;;;15.27;100.00;100582.25;5015924;28;19985;-45
2022/09/14 07:47:20;;;;;;;;;;;;;;;15.29;100.00;100581.03;5017070;28;19909;-43
2022/09/14 07:49:45;;;;;;;;;;;;;;;15.31;100.00;100580.84;5029316;28;20057;-45
2022/09/14 07:52:10;;;;;;;;;;;;;;;15.31;100.00;100586.22;5017645;28;20123;-44
2022/09/14 07:54:36;;;;;;;;;;;;;;;15.32;100.00;100574.41;5047648;28;19909;-43
2022/09/14 07:57:01;;;;;;;;;;;;;;;15.37;100.00;100573.81;5016799;28;20368;-42
2022/09/14 07:59:26;;;;;;;;;;;;;;;15.38;100.00;100567.44;5017175;28;20122;-43
2022/09/14 08:01:52;;;;;;;;;;;;;;;15.41;100.00;100558.94;5015992;28;19920;-43
2022/09/14 08:04:17;;;;;;;;;;;;;;;15.42;100.00;100566.81;5015869;28;19958;-45
2022/09/14 08:06:42;;;;;;;;;;;;;;;15.42;100.00;100569.50;5017474;28;19913;-43
2022/09/14 08:09:07;;;;;;;;;;;;;;;15.46;100.00;100578.00;5014637;28;20299;-44
2022/09/14 08:11:36;;;;;;;;;;;;;;;15.46;100.00;100575.31;5022134;28;19924;-43
2022/09/14 08:14:04;;;;;;;;;;;;;;;15.52;100.00;100579.06;5033475;28;20422;-48
2022/09/14 08:16:29;;;;;;;;;;;;;;;15.56;100.00;100575.75;5016188;28;19920;-42
2022/09/14 08:18:56;;;;;;;;;;;;;;;15.56;100.00;100586.53;5050073;28;19913;-46
2022/09/14 08:21:21;;;;;;;;;;;;;;;15.59;100.00;100579.94;5015497;28;20108;-45
2022/09/14 08:23:47;;;;;;;;;;;;;;;15.59;100.00;100567.28;5048857;28;19921;-45
2022/09/14 08:26:19;;;;;;;;;;;;;;;15.61;100.00;100575.16;5016500;28;19970;-44
2022/09/14 08:28:44;;;;;;;;;;;;;;;15.62;100.00;100571.47;5020837;28;19915;-43
2022/09/14 08:31:11;;;;;;;;;;;;;;;15.62;100.00;100566.91;5033377;28;19913;-43
2022/09/14 08:33:37;;;;;;;;;;;;;;;15.63;100.00;100568.56;5030733;28;19985;-44
2022/09/14 08:36:03;;;;;;;;;;;;;;;15.69;100.00;100577.69;5020683;28;20040;-44
2022/09/14 08:38:28;;;;;;;;;;;;;;;15.74;100.00;100579.78;5017095;28;20411;-45
2022/09/14 08:40:54;;;;;;;;;;;;;;;15.73;100.00;100580.81;5015916;28;19916;-43
2022/09/14 08:43:22;;;;;;;;;;;;;;;15.76;100.00;100586.66;5016797;28;19909;-41
2022/09/14 08:45:48;;;;;;;;;;;;;;;15.77;100.00;100582.94;5016556;28;20583;-45
2022/09/14 08:48:24;;;;;;;;;;;;;;;15.79;100.00;100578.16;5015289;28;19916;-44
2022/09/14 08:50:52;;;;;;;;;;;;;;;15.80;100.00;100571.75;5012279;28;20426;-43
2022/09/14 08:53:17;;;;;;;;;;;;;;;15.83;100.00;100575.91;5015931;28;20279;-43
2022/09/14 08:55:45;;;;;;;;;;;;;;;15.87;100.00;100582.56;5015823;28;20285;-43
2022/09/14 08:58:25;;;;;;;;;;;;;;;15.81;100.00;100570.72;5015305;28;19987;-44
2022/09/14 09:01:01;;;;;;;;;;;;;;;15.79;100.00;100577.34;5014727;28;19909;-46
2022/09/14 09:03:33;;;;;;;;;;;;;;;15.79;100.00;100572.78;5016913;28;20364;-44
2022/09/14 09:06:10;;;;;;;;;;;;;;;15.79;100.00;100583.56;5023205;28;19956;-43
2022/09/14 09:08:38;;;;;;;;;;;;;;;15.78;100.00;100589.13;5016543;28;19912;-45
2022/09/14 09:11:06;;;;;;;;;;;;;;;15.77;100.00;100590.19;5018785;28;19924;-47
2022/09/14 09:13:35;;;;;;;;;;;;;;;15.78;100.00;100590.00;5036052;28;19931;-44
2022/09/14 09:16:02;;;;;;;;;;;;;;;15.79;100.00;100588.13;5034943;28;19928;-43
2022/09/14 09:18:34;;;;;;;;;;;;;;;15.82;100.00;100585.84;5036244;28;19909;-45
2022/09/14 09:21:03;;;;;;;;;;;;;;;15.86;100.00;100586.28;5033748;28;20435;-44
2022/09/14 09:23:29;;;;;;;;;;;;;;;15.89;100.00;100588.56;5035586;28;19928;-42
2022/09/14 09:25:55;;;;;;;;;;;;;;;15.92;100.00;100580.09;5034897;28;19981;-44
2022/09/14 09:28:21;;;;;;;;;;;;;;;15.95;100.00;100576.97;5035368;28;19959;-46
2022/09/14 09:30:47;;;;;;;;;;;;;;;15.94;100.00;100580.72;5035872;28;20276;-45
2022/09/14 09:33:18;;;;;;;;;;;;;;;15.92;100.00;100584.63;5034627;28;20007;-43
2022/09/14 09:35:44;;;;;;;;;;;;;;;15.93;100.00;100584.44;5032202;28;19912;-45
2022/09/14 09:38:13;;;;;;;;;;;;;;;15.91;100.00;100588.38;5024365;28;19917;-44
2022/09/14 09:40:40;;;;;;;;;;;;;;;15.90;100.00;100576.75;5016605;28;20276;-46
2022/09/14 09:43:10;;;;;;;;;;;;;;;15.89;100.00;100576.97;5015587;28;19955;-45
2022/09/14 09:45:54;;;;;;;;;;;;;;;15.88;100.00;100575.31;5014824;28;19956;-46
2022/09/14 09:48:22;;;;;;;;;;;;;;;15.89;100.00;100577.78;5026930;28;19960;-43
2022/09/14 09:50:56;;;;;;;;;;;;;;;15.93;100.00;100581.72;5013351;28;19913;-43
2022/09/14 09:53:22;;;;;;;;;;;;;;;15.96;100.00;100567.88;5016375;28;20391;-44
2022/09/14 09:55:48;;;;;;;;;;;;;;;15.99;100.00;100569.34;5014819;28;19916;-43
2022/09/14 09:58:23;;;;;;;;;;;;;;;16.02;100.00;100569.75;5028857;28;19974;-42
2022/09/14 10:00:59;;;;;;;;;;;;;;;16.08;100.00;100568.09;5044726;28;19905;-43
2022/09/14 10:03:35;;;;;;;;;;;;;;;16.12;100.00;100561.25;5027752;28;19917;-46
2022/09/14 10:06:06;;;;;;;;;;;;;;;16.17;100.00;100561.50;5009980;28;19921;-47
2022/09/14 10:08:33;;;;;;;;;;;;;;;16.22;100.00;100553.63;5017050;28;20020;-43
2022/09/14 10:11:01;;;;;;;;;;;;;;;16.21;100.00;100551.97;5026049;28;19914;-47
2022/09/14 10:13:27;;;;;;;;;;;;;;;16.22;100.00;100560.84;5012043;28;19917;-45
2022/09/14 10:16:03;;;;;;;;;;;;;;;16.26;100.00;100556.75;5009536;28;19925;-46
2022/09/14 10:18:29;;;;;;;;;;;;;;;16.31;100.00;100573.13;5028971;28;19917;-45
2022/09/14 10:20:57;;;;;;;;;;;;;;;16.37;100.00;100564.19;5014874;28;20380;-45
2022/09/14 10:23:24;;;;;;;;;;;;;;;16.41;100.00;100562.75;5011163;28;20313;-45
2022/09/14 10:26:12;;;;;;;;;;;;;;;16.47;100.00;100565.66;5024225;28;20007;-43
2022/09/14 10:28:42;;;;;;;;;;;;;;;16.48;100.00;100557.38;5021669;28;20277;-45
2022/09/14 10:31:10;;;;;;;;;;;;;;;16.52;100.00;100563.19;5009645;28;20489;-43
2022/09/14 10:33:36;;;;;;;;;;;;;;;16.54;100.00;100563.78;5018092;28;20060;-45
2022/09/14 10:36:04;;;;;;;;;;;;;;;16.56;100.00;100567.97;5009026;28;20355;-45
2022/09/14 10:38:53;;;;;;;;;;;;;;;16.56;100.00;100569.81;5010939;28;19918;-42
2022/09/14 10:41:33;;;;;;;;;;;;;;;16.55;100.00;100568.16;5008475;28;19943;-45
2022/09/14 10:44:22;;;;;;;;;;;;;;;16.51;100.00;100564.19;5015144;28;20014;-43
2022/09/14 10:46:56;;;;;;;;;;;;;;;16.45;100.00;100567.75;5010190;28;19960;-45
2022/09/14 10:49:32;;;;;;;;;;;;;;;16.42;100.00;100559.00;5015168;28;20412;-47
2022/09/14 10:52:24;;;;;;;;;;;;;;;16.40;100.00;100558.38;5009878;28;19933;-43
2022/09/14 10:54:59;;;;;;;;;;;;;;;16.41;100.00;100551.97;5008427;28;20276;-42
2022/09/14 10:57:28;;;;;;;;;;;;;;;16.45;100.00;100556.97;5024197;28;19917;-44
2022/09/14 10:59:54;;;;;;;;;;;;;;;16.43;100.00;100554.47;5029330;28;19913;-43
2022/09/14 11:02:38;;;;;;;;;;;;;;;16.41;100.00;100551.13;5009242;28;19921;-43
2022/09/14 11:05:09;;;;;;;;;;;;;;;16.44;100.00;100557.97;5008600;28;19917;-45
2022/09/14 11:07:40;;;;;;;;;;;;;;;16.42;100.00;100555.50;5010312;28;20270;-44
2022/09/14 11:10:27;;;;;;;;;;;;;;;16.42;100.00;100563.59;5019572;28;19940;-43
2022/09/14 11:12:52;;;;;;;;;;;;;;;16.37;100.00;100555.28;5027794;28;20255;-43
2022/09/14 11:15:23;;;;;;;;;;;;;;;16.34;100.00;100551.13;5016308;28;19916;-45
2022/09/14 11:18:07;;;;;;;;;;;;;;;16.33;100.00;100556.75;5015251;28;20419;-44
2022/09/14 11:20:44;;;;;;;;;;;;;;;16.35;100.00;100554.66;5009745;28;19917;-47
2022/09/14 11:23:15;;;;;;;;;;;;;;;16.37;100.00;100550.72;5000548;28;19933;-49
2022/09/14 11:25:45;;;;;;;;;;;;;;;16.38;100.00;100556.97;5010998;28;20167;-50
2022/09/14 11:28:20;;;;;;;;;;;;;;;16.41;100.00;100554.69;4996903;28;19913;-48
2022/09/14 11:30:58;;;;;;;;;;;;;;;16.47;100.00;100560.28;5003732;28;19918;-46
2022/09/14 11:33:30;;;;;;;;;;;;;;;16.50;100.00;100555.28;4996803;28;19917;-44
2022/09/14 11:36:02;;;;;;;;;;;;;;;16.52;100.00;100552.41;5007061;28;19928;-45
2022/09/14 11:38:28;;;;;;;;;;;;;;;16.54;100.00;100553.81;4999077;28;20443;-43
2022/09/14 11:41:12;;;;;;;;;;;;;;;16.53;100.00;100554.03;4996747;28;19919;-46
2022/09/14 11:43:37;;;;;;;;;;;;;;;16.55;100.00;100547.41;4997524;28;20004;-44
2022/09/14 11:46:15;;;;;;;;;;;;;;;16.58;100.00;100551.53;5002360;28;20028;-46
2022/09/14 11:48:43;;;;;;;;;;;;;;;16.54;100.00;100543.03;4997810;28;19921;-46
2022/09/14 11:51:12;;;;;;;;;;;;;;;16.53;100.00;100545.94;4995098;28;19929;-43
2022/09/14 11:53:39;;;;;;;;;;;;;;;16.54;100.00;100548.44;4996731;28;19913;-45
2022/09/14 11:56:04;;;;;;;;;;;;;;;16.50;100.00;100544.50;4998626;28;19921;-43
2022/09/14 11:58:30;;;;;;;;;;;;;;;16.47;100.00;100549.50;4996608;28;20902;-43
2022/09/14 12:01:03;;;;;;;;;;;;;;;16.45;100.00;100548.88;4994999;28;20474;-47
2022/09/14 12:03:47;;;;;;;;;;;;;;;16.40;100.00;100550.31;5001188;28;19921;-43
2022/09/14 12:06:30;;;;;;;;;;;;;;;16.37;100.00;100550.72;4994561;28;20411;-43
2022/09/14 12:09:11;;;;;;;;;;;;;;;16.34;100.00;100547.59;5005052;28;19918;-44
2022/09/14 12:11:37;;;;;;;;;;;;;;;16.34;100.00;100545.72;5016298;28;19913;-47
2022/09/14 12:14:12;;;;;;;;;;;;;;;16.38;100.00;100541.59;5014898;28;19924;-44
2022/09/14 12:16:56;;;;;;;;;;;;;;;16.44;100.00;100539.94;5014595;28;20407;-43
2022/09/14 12:19:25;;;;;;;;;;;;;;;16.50;100.00;100538.31;5014765;28;19979;-47
2022/09/14 12:21:50;;;;;;;;;;;;;;;16.52;100.00;100533.53;5013538;28;20022;-43
2022/09/14 12:24:21;;;;;;;;;;;;;;;16.52;100.00;100531.66;5014255;28;19972;-44
2022/09/14 12:26:46;;;;;;;;;;;;;;;16.55;100.00;100533.94;5009165;28;20011;-48
2022/09/14 12:29:32;;;;;;;;;;;;;;;16.51;100.00;100535.38;5011751;28;19987;-43
2022/09/14 12:31:59;;;;;;;;;;;;;;;16.51;100.00;100527.28;5004451;28;20004;-45
2022/09/14 12:34:30;;;;;;;;;;;;;;;16.55;100.00;100533.94;5014829;28;20011;-43